createdAt,value
2022-12-05T00:01:25.613Z,96783.78
2022-12-05T00:03:54.296Z,96787.25
2022-12-05T00:06:21.804Z,96792.69
2022-12-05T00:08:49.106Z,96786.69
2022-12-05T00:11:18.606Z,96790.69
2022-12-05T00:13:46.108Z,96793.41
2022-12-05T00:16:16.208Z,96784.53
2022-12-05T00:18:42.956Z,96782.53
2022-12-05T00:21:18.302Z,96786.38
2022-12-05T00:23:45.073Z,96803.56
2022-12-05T00:26:12.468Z,96785.25
2022-12-05T00:28:39.597Z,96795.56
2022-12-05T00:31:12.479Z,96800.44
2022-12-05T00:33:39.733Z,96797.72
2022-12-05T00:36:10.442Z,96803.56
2022-12-05T00:38:37.397Z,96807.06
2022-12-05T00:41:05.093Z,96798.44
2022-12-05T00:43:32.591Z,96805.72
2022-12-05T00:46:07.869Z,96806.31
2022-12-05T00:48:34.848Z,96809.16
2022-12-05T00:51:12.343Z,96809.03
2022-12-05T00:53:39.744Z,96818.03
2022-12-05T00:56:13.891Z,96811.16
2022-12-05T00:58:41.103Z,96818.75
2022-12-05T01:01:10.533Z,96831.66
2022-12-05T01:03:37.586Z,96826.34
2022-12-05T01:06:06.025Z,96832.22
2022-12-05T01:08:34.207Z,96833.31
2022-12-05T01:11:01.744Z,96835.47
2022-12-05T01:13:28.816Z,96824.59
2022-12-05T01:15:55.766Z,96836.94
2022-12-05T01:18:23.424Z,96838.38
2022-12-05T01:20:50.107Z,96832.94
2022-12-05T01:23:16.920Z,96833.66
2022-12-05T01:25:46.077Z,96829.66
2022-12-05T01:28:13.386Z,96829.06
2022-12-05T01:30:42.930Z,96823.63
2022-12-05T01:33:10.250Z,96830.53
2022-12-05T01:35:38.566Z,96829.78
2022-12-05T01:38:05.512Z,96835.97
2022-12-05T01:40:35.961Z,96831.06
2022-12-05T01:43:03.551Z,96831.06
2022-12-05T01:45:39.612Z,96835.81
2022-12-05T01:48:13.181Z,96837.94
2022-12-05T01:50:40.127Z,96845.41
2022-12-05T01:53:06.956Z,96841.41
2022-12-05T01:55:34.811Z,96840.66
2022-12-05T01:58:02.200Z,96843.38
2022-12-05T02:00:29.241Z,96838.69
2022-12-05T02:02:59.415Z,96836.69
2022-12-05T02:05:36.799Z,96844.28
2022-12-05T02:08:10.242Z,96845.56
2022-12-05T02:10:43.145Z,96852.28
2022-12-05T02:13:29.848Z,96860.47
2022-12-05T02:16:11.757Z,96863.91
2022-12-05T02:18:45.921Z,96867.88
2022-12-05T02:21:26.252Z,96852.28
2022-12-05T02:24:02.185Z,96852.28
2022-12-05T02:26:28.849Z,96863.91
2022-12-05T02:29:23.223Z,96865.16
2022-12-05T02:32:35.137Z,96865.91
2022-12-05T02:35:38.724Z,96866.44
2022-12-05T02:38:17.573Z,96875.31
2022-12-05T02:41:16.219Z,96870.44
2022-12-05T02:43:52.414Z,96874.59
2022-12-05T02:46:22.122Z,96874.59
2022-12-05T02:48:52.083Z,96870.59
2022-12-05T02:51:21.531Z,96875.31
2022-12-05T02:53:49.628Z,96862.28
2022-12-05T02:56:16.638Z,96873.03
2022-12-05T02:58:52.406Z,96872.13
2022-12-05T03:01:22.302Z,96877.75
2022-12-05T03:03:49.367Z,96884.06
2022-12-05T03:06:21.119Z,96871.75
2022-12-05T03:08:56.347Z,96875.88
2022-12-05T03:11:23.414Z,96875.31
2022-12-05T03:13:55.560Z,96878.75
2022-12-05T03:16:36.515Z,96870.59
2022-12-05T03:19:06.862Z,96871.88
2022-12-05T03:21:37.713Z,96870.59
2022-12-05T03:24:09.994Z,96857.75
2022-12-05T03:27:02.597Z,96862.59
2022-12-05T03:29:51.241Z,96864.28
2022-12-05T03:32:33.177Z,96871.97
2022-12-05T03:35:14.545Z,96875.41
2022-12-05T03:38:12.770Z,96871.59
2022-12-05T03:41:02.953Z,96896.06
2022-12-05T03:43:36.657Z,96897.50
2022-12-05T03:46:06.942Z,96886.63
2022-12-05T03:48:46.968Z,96899.66
2022-12-05T03:51:16.541Z,96896.38
2022-12-05T03:53:59.185Z,96905.25
2022-12-05T03:56:31.380Z,96900.38
2022-12-05T03:59:43.356Z,96904.53
2022-12-05T04:02:15.213Z,96905.09
2022-12-05T04:04:50.289Z,96911.25
2022-12-05T04:07:18.345Z,96912.69
2022-12-05T04:09:49.885Z,96913.41
2022-12-05T04:12:21.457Z,96901.09
2022-12-05T04:14:51.338Z,96906.72
2022-12-05T04:17:18.022Z,96913.59
2022-12-05T04:20:08.688Z,96905.97
2022-12-05T04:22:36.813Z,96907.56
2022-12-05T04:25:30.850Z,96909.44
2022-12-05T04:28:01.914Z,96916.84
2022-12-05T04:30:49.291Z,96928.63
2022-12-05T04:33:30.014Z,96931.34
2022-12-05T04:35:59.832Z,96927.41
2022-12-05T04:38:39.629Z,96933.81
2022-12-05T04:41:11.540Z,96943.84
2022-12-05T04:43:40.689Z,96936.22
2022-12-05T04:46:10.054Z,96940.94
2022-12-05T04:48:39.880Z,96934.06
2022-12-05T04:51:13.862Z,96943.84
2022-12-05T04:53:42.178Z,96945.28
2022-12-05T04:56:09.757Z,96965.03
2022-12-05T04:58:36.540Z,96970.63
2022-12-05T05:01:29.385Z,96976.97
2022-12-05T05:04:14.968Z,96974.97
2022-12-05T05:06:42.362Z,96967.50
2022-12-05T05:09:10.325Z,96983.28
2022-12-05T05:11:37.877Z,96980.56
2022-12-05T05:14:04.613Z,96978.72
2022-12-05T05:16:34.448Z,96976.00
2022-12-05T05:19:01.406Z,96978.88
2022-12-05T05:21:30.988Z,96968.13
2022-12-05T05:23:58.465Z,96966.88
2022-12-05T05:26:26.178Z,96975.19
2022-12-05T05:28:53.143Z,96967.75
2022-12-05T05:31:21.442Z,96969.19
2022-12-05T05:33:54.530Z,96976.63
2022-12-05T05:36:22.749Z,96987.69
2022-12-05T05:38:51.977Z,97002.75
2022-12-05T05:41:23.993Z,96996.72
2022-12-05T05:43:51.655Z,97007.03
2022-12-05T05:46:20.539Z,97000.34
2022-12-05T05:48:47.714Z,97008.66
2022-12-05T05:51:15.780Z,97006.09
2022-12-05T05:53:43.330Z,97002.06
2022-12-05T05:56:18.540Z,96995.38
2022-12-05T05:58:48.696Z,96992.78
2022-12-05T06:01:22.775Z,96993.50
2022-12-05T06:03:50.785Z,97003.69
2022-12-05T06:06:19.094Z,97009.28
2022-12-05T06:08:46.285Z,97022.88
2022-12-05T06:11:18.885Z,97032.66
2022-12-05T06:13:50.274Z,97040.28
2022-12-05T06:16:18.346Z,97036.25
2022-12-05T06:18:45.100Z,97043.16
2022-12-05T06:21:16.202Z,97054.22
2022-12-05T06:23:43.402Z,97046.59
2022-12-05T06:26:12.578Z,97048.03
2022-12-05T06:28:39.599Z,97057.09
2022-12-05T06:31:34.041Z,97055.25
2022-12-05T06:34:04.541Z,97052.38
2022-12-05T06:36:31.456Z,97057.97
2022-12-05T06:38:58.747Z,97052.53
2022-12-05T06:41:27.495Z,97056.31
2022-12-05T06:44:01.970Z,97051.63
2022-12-05T06:46:29.673Z,97044.00
2022-12-05T06:48:57.578Z,97049.91
2022-12-05T06:51:24.866Z,97056.28
2022-12-05T06:53:52.022Z,97054.00
2022-12-05T06:56:20.006Z,97066.03
2022-12-05T06:58:49.266Z,97071.56
2022-12-05T07:01:37.170Z,97073.59
2022-12-05T07:04:05.841Z,97068.78
2022-12-05T07:06:34.294Z,97069.38
2022-12-05T07:09:01.400Z,97066.03
2022-12-05T07:11:28.177Z,97075.66
2022-12-05T07:13:55.087Z,97070.78
2022-12-05T07:16:26.881Z,97069.00
2022-12-05T07:18:54.522Z,97067.56
2022-12-05T07:21:22.272Z,97074.06
2022-12-05T07:23:50.380Z,97065.22
2022-12-05T07:26:23.425Z,97072.84
2022-12-05T07:28:54.865Z,97078.47
2022-12-05T07:31:23.215Z,97074.47
2022-12-05T07:33:50.453Z,97079.91
2022-12-05T07:36:20.309Z,97079.41
2022-12-05T07:38:47.137Z,97073.97
2022-12-05T07:41:20.726Z,97086.09
2022-12-05T07:43:47.508Z,97086.28
2022-12-05T07:46:15.931Z,97079.75
2022-12-05T07:48:42.780Z,97078.28
2022-12-05T07:51:11.105Z,97083.91
2022-12-05T07:53:38.662Z,97082.06
2022-12-05T07:56:07.593Z,97073.25
2022-12-05T07:58:35.340Z,97088.25
2022-12-05T08:01:15.562Z,97092.06
2022-12-05T08:03:43.353Z,97098.72
2022-12-05T08:06:16.340Z,97090.38
2022-12-05T08:08:43.360Z,97103.38
2022-12-05T08:11:14.895Z,97101.19
2022-12-05T08:13:41.884Z,97104.78
2022-12-05T08:16:12.650Z,97102.25
2022-12-05T08:18:39.596Z,97106.47
2022-12-05T08:21:08.709Z,97115.19
2022-12-05T08:23:36.394Z,97119.88
2022-12-05T08:26:05.273Z,97130.53
2022-12-05T08:28:32.259Z,97126.19
2022-12-05T08:31:10.777Z,97128.19
2022-12-05T08:33:38.026Z,97128.34
2022-12-05T08:36:07.072Z,97127.06
2022-12-05T08:38:34.416Z,97128.91
2022-12-05T08:41:02.480Z,97127.97
2022-12-05T08:43:30.224Z,97145.72
2022-12-05T08:45:57.181Z,97139.94
2022-12-05T08:48:28.939Z,97149.50
2022-12-05T08:50:57.924Z,97152.53
2022-12-05T08:53:25.609Z,97156.84
2022-12-05T08:55:52.312Z,97164.41
2022-12-05T08:58:19.038Z,97172.50
2022-12-05T09:00:45.765Z,97173.59
2022-12-05T09:03:13.031Z,97178.09
2022-12-05T09:05:39.862Z,97175.88
2022-12-05T09:08:06.642Z,97177.66
2022-12-05T09:10:34.127Z,97186.16
2022-12-05T09:13:00.969Z,97172.22
2022-12-05T09:15:27.866Z,97189.25
2022-12-05T09:17:54.709Z,97191.31
2022-12-05T09:20:22.408Z,97188.47
2022-12-05T09:22:49.136Z,97194.81
2022-12-05T09:25:16.101Z,97190.72
2022-12-05T09:27:42.936Z,97196.19
2022-12-05T09:30:10.508Z,97202.72
2022-12-05T09:32:37.408Z,97194.88
2022-12-05T09:35:04.435Z,97200.78
2022-12-05T09:37:39.295Z,97200.91
2022-12-05T09:40:16.964Z,97198.13
2022-12-05T09:42:59.801Z,97198.13
2022-12-05T09:45:40.738Z,97199.38
2022-12-05T09:48:12.230Z,97203.78
2022-12-05T09:50:47.105Z,97205.06
2022-12-05T09:53:25.018Z,97201.78
2022-12-05T09:56:02.302Z,97202.97
2022-12-05T09:58:43.965Z,97200.38
2022-12-05T10:01:44.026Z,97199.94
2022-12-05T10:04:39.181Z,97207.34
2022-12-05T10:07:24.740Z,97197.81
2022-12-05T10:10:00.585Z,97197.81
2022-12-05T10:12:43.351Z,97207.25
2022-12-05T10:15:23.822Z,97207.44
2022-12-05T10:17:54.214Z,97209.94
2022-12-05T10:20:35.086Z,97213.00
2022-12-05T10:23:27.930Z,97213.00
2022-12-05T10:26:03.805Z,97211.38
2022-12-05T10:28:35.209Z,97212.06
2022-12-05T10:31:05.994Z,97211.59
2022-12-05T10:33:38.326Z,97217.09
2022-12-05T10:36:14.826Z,97204.47
2022-12-05T10:38:46.323Z,97214.25
2022-12-05T10:41:18.096Z,97216.16
2022-12-05T10:43:52.896Z,97220.75
2022-12-05T10:46:27.039Z,97213.13
2022-12-05T10:49:02.415Z,97213.28
2022-12-05T10:51:37.501Z,97202.31
2022-12-05T10:54:25.907Z,97212.31
2022-12-05T10:56:54.040Z,97206.03
2022-12-05T10:59:23.314Z,97208.88
2022-12-05T11:01:55.524Z,97203.38
2022-12-05T11:04:25.869Z,97209.03
2022-12-05T11:06:54.081Z,97204.16
2022-12-05T11:09:26.780Z,97212.66
2022-12-05T11:12:06.963Z,97220.03
2022-12-05T11:14:36.211Z,97218.16
2022-12-05T11:17:04.690Z,97217.59
2022-12-05T11:19:36.649Z,97218.38
2022-12-05T11:22:05.013Z,97215.66
2022-12-05T11:24:34.342Z,97215.28
2022-12-05T11:27:23.637Z,97213.66
2022-12-05T11:30:00.516Z,97204.59
2022-12-05T11:32:32.489Z,97209.81
2022-12-05T11:35:11.815Z,97206.31
2022-12-05T11:37:46.262Z,97217.19
2022-12-05T11:40:42.506Z,97211.44
2022-12-05T11:43:35.743Z,97215.66
2022-12-05T11:46:27.191Z,97209.00
2022-12-05T11:49:10.911Z,97202.97
2022-12-05T11:52:02.758Z,97190.00
2022-12-05T11:55:05.638Z,97184.03
2022-12-05T11:57:59.926Z,97184.03
2022-12-05T12:00:44.910Z,97185.50
2022-12-05T12:03:14.760Z,97194.97
2022-12-05T12:05:44.617Z,97197.34
2022-12-05T12:08:28.710Z,97193.53
2022-12-05T12:10:59.646Z,97192.56
2022-12-05T12:13:45.298Z,97197.53
2022-12-05T12:16:45.346Z,97192.13
2022-12-05T12:19:52.921Z,97205.00
2022-12-05T12:22:48.379Z,97200.28
2022-12-05T12:25:21.211Z,97210.22
2022-12-05T12:27:51.056Z,97208.44
2022-12-05T12:30:33.719Z,97199.09
2022-12-05T12:33:44.994Z,97204.78
2022-12-05T12:36:34.246Z,97204.31
2022-12-05T12:39:04.501Z,97204.59
2022-12-05T12:41:49.915Z,97206.94
2022-12-05T12:44:19.518Z,97203.03
2022-12-05T12:46:46.140Z,97201.97
2022-12-05T12:49:21.401Z,97205.50
2022-12-05T12:52:01.861Z,97199.47
2022-12-05T12:55:12.761Z,97198.94
2022-12-05T12:58:04.121Z,97199.81
2022-12-05T13:00:47.618Z,97196.75
2022-12-05T13:03:23.854Z,97191.94
2022-12-05T13:05:54.509Z,97190.38
2022-12-05T13:08:23.848Z,97189.97
2022-12-05T13:10:51.198Z,97196.31
2022-12-05T13:13:33.606Z,97190.94
2022-12-05T13:16:02.270Z,97181.13
2022-12-05T13:18:29.025Z,97187.25
2022-12-05T13:20:58.655Z,97182.44
2022-12-05T13:23:29.958Z,97184.38
2022-12-05T13:25:58.300Z,97185.97
2022-12-05T13:28:34.000Z,97188.16
2022-12-05T13:31:02.672Z,97181.63
2022-12-05T13:33:33.218Z,97187.16
2022-12-05T13:36:34.225Z,97190.72
2022-12-05T13:39:25.222Z,97197.75
2022-12-05T13:42:15.660Z,97194.31
2022-12-05T13:44:58.078Z,97191.97
2022-12-05T13:47:50.865Z,97195.00
2022-12-05T13:50:32.998Z,97190.78
2022-12-05T13:53:37.699Z,97192.94
2022-12-05T13:56:26.698Z,97190.72
2022-12-05T13:58:58.105Z,97200.88
2022-12-05T14:01:24.918Z,97194.00
2022-12-05T14:03:52.158Z,97196.88
2022-12-05T14:06:40.726Z,97198.25
2022-12-05T14:09:10.582Z,97194.13
2022-12-05T14:11:37.709Z,97195.72
2022-12-05T14:14:05.242Z,97193.91
2022-12-05T14:16:35.326Z,97192.84
2022-12-05T14:19:05.146Z,97199.97
2022-12-05T14:21:37.536Z,97204.28
2022-12-05T14:24:15.547Z,97203.66
2022-12-05T14:27:07.071Z,97202.44
2022-12-05T14:29:36.834Z,97210.75
2022-12-05T14:32:23.815Z,97206.94
2022-12-05T14:35:16.819Z,97212.69
2022-12-05T14:37:53.046Z,97205.31
2022-12-05T14:40:35.000Z,97207.69
2022-12-05T14:43:25.579Z,97210.97
2022-12-05T14:45:52.297Z,97210.19
2022-12-05T14:48:32.103Z,97204.44
2022-12-05T14:51:00.354Z,97210.09
2022-12-05T14:53:42.950Z,97207.38
2022-12-05T14:56:22.085Z,97213.13
2022-12-05T14:58:57.280Z,97215.63
2022-12-05T15:01:25.728Z,97212.53
2022-12-05T15:04:14.687Z,97215.97
2022-12-05T15:06:50.112Z,97221.56
2022-12-05T15:09:38.526Z,97221.03
2022-12-05T15:12:12.597Z,97207.44
2022-12-05T15:14:54.788Z,97219.19
2022-12-05T15:17:26.018Z,97217.41
2022-12-05T15:19:58.198Z,97229.06
2022-12-05T15:22:27.142Z,97224.41
2022-12-05T15:24:53.874Z,97229.50
2022-12-05T15:27:22.157Z,97224.63
2022-12-05T15:29:49.154Z,97225.13
2022-12-05T15:32:19.083Z,97226.72
2022-12-05T15:34:49.657Z,97226.34
2022-12-05T15:37:25.922Z,97230.50
2022-12-05T15:40:00.886Z,97227.44
2022-12-05T15:42:31.085Z,97229.44
2022-12-05T15:45:21.790Z,97227.28
2022-12-05T15:48:12.336Z,97234.94
2022-12-05T15:50:44.038Z,97233.56
2022-12-05T15:53:23.095Z,97235.75
2022-12-05T15:56:08.000Z,97234.97
2022-12-05T15:58:45.181Z,97246.22
2022-12-05T16:01:19.583Z,97244.59
2022-12-05T16:04:07.800Z,97240.59
2022-12-05T16:06:38.537Z,97243.13
2022-12-05T16:09:11.334Z,97244.78
2022-12-05T16:11:38.858Z,97243.31
2022-12-05T16:14:07.100Z,97244.38
2022-12-05T16:16:38.964Z,97240.50
2022-12-05T16:19:13.378Z,97242.09
2022-12-05T16:21:47.103Z,97247.09
2022-12-05T16:24:21.657Z,97249.19
2022-12-05T16:26:59.820Z,97251.31
2022-12-05T16:29:29.241Z,97249.81
2022-12-05T16:31:57.554Z,97253.22
2022-12-05T16:34:26.103Z,97252.97
2022-12-05T16:36:54.529Z,97254.19
2022-12-05T16:39:21.866Z,97258.69
2022-12-05T16:41:48.722Z,97250.88
2022-12-05T16:44:28.292Z,97250.63
2022-12-05T16:46:56.033Z,97248.25
2022-12-05T16:49:34.508Z,97247.81
2022-12-05T16:52:12.294Z,97250.88
2022-12-05T16:54:39.097Z,97245.78
2022-12-05T16:57:05.758Z,97251.56
2022-12-05T16:59:38.151Z,97260.44
2022-12-05T17:02:10.341Z,97252.59
2022-12-05T17:04:38.792Z,97254.91
2022-12-05T17:07:05.552Z,97264.72
2022-12-05T17:09:32.410Z,97266.28
2022-12-05T17:12:07.443Z,97263.56
2022-12-05T17:14:34.222Z,97267.34
2022-12-05T17:17:03.591Z,97264.06
2022-12-05T17:19:30.378Z,97249.16
2022-12-05T17:21:57.054Z,97268.41
2022-12-05T17:24:28.276Z,97260.41
2022-12-05T17:26:55.119Z,97256.38
2022-12-05T17:29:21.867Z,97259.25
2022-12-05T17:31:49.451Z,97266.88
2022-12-05T17:34:17.555Z,97275.03
2022-12-05T17:36:45.016Z,97269.06
2022-12-05T17:39:11.750Z,97273.78
2022-12-05T17:41:38.673Z,97273.38
2022-12-05T17:44:06.038Z,97281.00
2022-12-05T17:46:33.003Z,97283.16
2022-12-05T17:48:59.746Z,97286.59
2022-12-05T17:51:26.742Z,97294.22
2022-12-05T17:53:54.516Z,97294.94
2022-12-05T17:56:22.024Z,97295.13
2022-12-05T17:58:49.825Z,97299.28
2022-12-05T18:01:19.506Z,97298.56
2022-12-05T18:03:47.417Z,97297.41
2022-12-05T18:06:14.244Z,97298.88
2022-12-05T18:08:44.055Z,97298.31
2022-12-05T18:11:14.090Z,97298.31
2022-12-05T18:13:40.898Z,97295.03
2022-12-05T18:16:08.114Z,97308.66
2022-12-05T18:18:34.966Z,97301.19
2022-12-05T18:21:09.925Z,97307.38
2022-12-05T18:23:37.577Z,97309.56
2022-12-05T18:26:05.528Z,97309.56
2022-12-05T18:28:34.725Z,97305.34
2022-12-05T18:31:15.001Z,97313.72
2022-12-05T18:33:43.476Z,97306.97
2022-12-05T18:36:13.917Z,97321.34
2022-12-05T18:38:55.956Z,97318.03
2022-12-05T18:41:24.263Z,97313.31
2022-12-05T18:43:51.171Z,97316.78
2022-12-05T18:46:20.811Z,97322.94
2022-12-05T18:48:48.886Z,97317.50
2022-12-05T18:51:22.087Z,97324.97
2022-12-05T18:53:54.138Z,97325.69
2022-12-05T18:56:26.671Z,97329.13
2022-12-05T18:58:58.899Z,97327.13
2022-12-05T19:01:27.334Z,97323.09
2022-12-05T19:03:54.429Z,97321.09
2022-12-05T19:06:23.637Z,97328.56
2022-12-05T19:08:54.140Z,97324.53
2022-12-05T19:11:21.564Z,97334.91
2022-12-05T19:13:48.261Z,97331.44
2022-12-05T19:16:18.800Z,97332.19
2022-12-05T19:18:46.982Z,97328.16
2022-12-05T19:21:13.693Z,97328.88
2022-12-05T19:23:40.483Z,97338.50
2022-12-05T19:26:08.730Z,97327.44
2022-12-05T19:28:36.674Z,97323.44
2022-12-05T19:31:08.939Z,97326.88
2022-12-05T19:33:40.467Z,97327.59
2022-12-05T19:36:11.601Z,97325.59
2022-12-05T19:38:42.009Z,97327.59
2022-12-05T19:41:10.644Z,97329.03
2022-12-05T19:43:37.915Z,97331.75
2022-12-05T19:46:06.874Z,97337.94
2022-12-05T19:48:34.298Z,97335.94
2022-12-05T19:51:01.562Z,97329.22
2022-12-05T19:53:30.143Z,97327.03
2022-12-05T19:56:04.035Z,97329.03
2022-12-05T19:58:35.458Z,97316.81
2022-12-05T20:01:11.438Z,97323.03
2022-12-05T20:03:40.669Z,97325.75
2022-12-05T20:06:08.419Z,97320.31
2022-12-05T20:08:36.441Z,97316.81
2022-12-05T20:11:14.851Z,97319.56
2022-12-05T20:13:46.953Z,97321.75
2022-12-05T20:16:15.419Z,97316.28
2022-12-05T20:18:42.617Z,97317.00
2022-12-05T20:21:11.141Z,97315.56
2022-12-05T20:23:37.888Z,97317.00
2022-12-05T20:26:10.105Z,97320.31
2022-12-05T20:28:37.147Z,97327.91
2022-12-05T20:31:12.972Z,97320.44
2022-12-05T20:33:40.807Z,97313.00
2022-12-05T20:36:09.830Z,97319.88
2022-12-05T20:38:36.773Z,97324.03
2022-12-05T20:41:09.366Z,97315.72
2022-12-05T20:43:38.909Z,97320.59
2022-12-05T20:46:08.353Z,97321.16
2022-12-05T20:48:35.426Z,97317.00
2022-12-05T20:51:07.204Z,97328.50
2022-12-05T20:53:35.737Z,97320.31
2022-12-05T20:56:05.053Z,97327.19
2022-12-05T20:58:32.017Z,97329.94
2022-12-05T21:01:00.258Z,97317.56
2022-12-05T21:03:27.270Z,97316.28
2022-12-05T21:05:54.232Z,97315.00
2022-12-05T21:08:22.392Z,97313.56
2022-12-05T21:10:51.096Z,97314.28
2022-12-05T21:13:18.982Z,97309.53
2022-12-05T21:15:46.418Z,97308.25
2022-12-05T21:18:13.310Z,97308.81
2022-12-05T21:20:42.260Z,97301.34
2022-12-05T21:23:09.635Z,97296.63
2022-12-05T21:25:36.863Z,97297.34
2022-12-05T21:28:03.596Z,97291.16
2022-12-05T21:30:30.278Z,97295.91
2022-12-05T21:33:01.072Z,97291.72
2022-12-05T21:35:29.529Z,97296.63
2022-12-05T21:37:56.290Z,97306.09
2022-12-05T21:40:23.147Z,97300.63
2022-12-05T21:42:49.858Z,97304.09
2022-12-05T21:45:16.652Z,97308.81
2022-12-05T21:47:44.829Z,97306.81
2022-12-05T21:50:11.970Z,97303.38
2022-12-05T21:52:39.655Z,97308.25
2022-12-05T21:55:10.168Z,97304.09
2022-12-05T21:57:39.013Z,97304.81
2022-12-05T22:00:09.798Z,97306.81
2022-12-05T22:02:36.634Z,97307.53
2022-12-05T22:05:03.646Z,97305.53
2022-12-05T22:07:30.423Z,97314.44
2022-12-05T22:09:57.539Z,97315.72
2022-12-05T22:12:24.769Z,97311.56
2022-12-05T22:14:51.481Z,97309.53
2022-12-05T22:17:18.280Z,97311.69
2022-12-05T22:19:44.950Z,97309.69
2022-12-05T22:22:13.150Z,97304.81
2022-12-05T22:24:46.393Z,97308.25
2022-12-05T22:27:19.913Z,97306.81
2022-12-05T22:29:52.981Z,97308.25
2022-12-05T22:32:26.959Z,97311.69
2022-12-05T22:35:12.393Z,97310.25
2022-12-05T22:37:39.097Z,97312.41
2022-12-05T22:40:06.525Z,97308.97
2022-12-05T22:42:33.331Z,97311.69
2022-12-05T22:45:00.019Z,97308.97
2022-12-05T22:47:27.120Z,97306.25
2022-12-05T22:49:53.836Z,97304.94
2022-12-05T22:52:20.569Z,97298.06
2022-12-05T22:54:47.203Z,97303.50
2022-12-05T22:57:13.929Z,97300.78
2022-12-05T22:59:41.626Z,97296.63
2022-12-05T23:02:08.997Z,97291.88
2022-12-05T23:04:37.893Z,97291.16
2022-12-05T23:07:04.875Z,97289.88
2022-12-05T23:09:31.641Z,97292.59
2022-12-05T23:12:04.043Z,97285.72
2022-12-05T23:14:32.345Z,97284.41
2022-12-05T23:17:04.896Z,97279.53
2022-12-05T23:19:36.352Z,97274.78
2022-12-05T23:22:07.764Z,97279.69
2022-12-05T23:24:38.064Z,97276.25
2022-12-05T23:27:05.451Z,97277.66
2022-12-05T23:29:32.194Z,97279.69
2022-12-05T23:31:59.234Z,97270.78
2022-12-05T23:34:26.049Z,97270.06
2022-12-05T23:36:52.967Z,97269.34
2022-12-05T23:39:20.064Z,97263.16
2022-12-05T23:41:49.195Z,97261.72
2022-12-05T23:44:16.059Z,97262.44
2022-12-05T23:46:42.919Z,97265.91
2022-12-05T23:49:09.948Z,97273.34
2022-12-05T23:51:40.214Z,97274.78
2022-12-05T23:54:09.780Z,97274.06
2022-12-05T23:56:37.565Z,97268.47
2022-12-05T23:59:06.181Z,97274.47
